createdAt,value
2023-04-26T00:00:59.782Z,64.87
2023-04-26T00:03:41.845Z,64.98
2023-04-26T00:06:21.291Z,65.06
2023-04-26T00:09:00.653Z,64.29
2023-04-26T00:11:39.996Z,65.28
2023-04-26T00:14:24.419Z,65.31
2023-04-26T00:17:04.615Z,65.42
2023-04-26T00:19:44.250Z,65.44
2023-04-26T00:22:23.547Z,65.53
2023-04-26T00:25:03.316Z,65.64
2023-04-26T00:27:43.324Z,65.58
2023-04-26T00:30:27.950Z,65.18
2023-04-26T00:33:07.563Z,65.51
2023-04-26T00:35:46.963Z,65.53
2023-04-26T00:38:26.390Z,65.29
2023-04-26T00:41:06.732Z,65.33
2023-04-26T00:43:46.434Z,65.45
2023-04-26T00:46:32.256Z,65.70
2023-04-26T00:49:13.786Z,65.29
2023-04-26T00:51:55.090Z,65.58
2023-04-26T00:54:34.486Z,66.17
2023-04-26T00:57:16.007Z,65.21
2023-04-26T00:59:55.442Z,64.85
2023-04-26T01:02:40.018Z,65.09
2023-04-26T01:05:19.461Z,65.83
2023-04-26T01:08:00.993Z,66.29
2023-04-26T01:10:43.137Z,66.54
2023-04-26T01:13:23.336Z,66.19
2023-04-26T01:16:04.508Z,66.12
2023-04-26T01:18:49.405Z,66.24
2023-04-26T01:21:29.766Z,66.36
2023-04-26T01:24:16.795Z,65.97
2023-04-26T01:26:56.774Z,66.56
2023-04-26T01:29:36.608Z,66.68
2023-04-26T01:32:16.186Z,66.84
2023-04-26T01:34:55.509Z,67.06
2023-04-26T01:37:34.846Z,67.08
2023-04-26T01:40:20.687Z,67.28
2023-04-26T01:43:00.036Z,67.32
2023-04-26T01:45:39.349Z,67.21
2023-04-26T01:48:18.664Z,67.01
2023-04-26T01:50:58.014Z,66.97
2023-04-26T01:53:37.365Z,67.39
2023-04-26T01:56:21.777Z,67.19
2023-04-26T01:59:01.460Z,66.95
2023-04-26T02:01:40.844Z,66.47
2023-04-26T02:04:20.212Z,66.80
2023-04-26T02:06:59.482Z,67.03
2023-04-26T02:09:38.883Z,66.94
2023-04-26T02:12:23.287Z,67.05
2023-04-26T02:15:02.576Z,66.85
2023-04-26T02:17:42.163Z,66.95
2023-04-26T02:20:21.394Z,67.52
2023-04-26T02:23:00.672Z,67.80
2023-04-26T02:25:39.991Z,68.22
2023-04-26T02:28:24.682Z,68.48
2023-04-26T02:31:04.016Z,68.02
2023-04-26T02:33:43.379Z,68.33
2023-04-26T02:36:22.645Z,68.28
2023-04-26T02:39:01.939Z,68.08
2023-04-26T02:41:41.261Z,68.23
2023-04-26T02:44:25.596Z,68.60
2023-04-26T02:47:05.365Z,68.63
2023-04-26T02:49:44.713Z,68.49
2023-04-26T02:52:24.015Z,68.17
2023-04-26T02:55:03.532Z,67.82
2023-04-26T02:57:43.110Z,67.64
2023-04-26T03:03:13.701Z,67.34
2023-04-26T03:05:53.088Z,67.34
2023-04-26T03:08:32.461Z,67.60
2023-04-26T03:11:12.056Z,67.57
2023-04-26T03:13:51.282Z,67.20
2023-04-26T03:16:36.166Z,67.42
2023-04-26T03:19:15.553Z,67.98
2023-04-26T03:21:54.856Z,67.80
2023-04-26T03:24:34.256Z,68.14
2023-04-26T03:27:13.478Z,68.13
2023-04-26T03:29:52.869Z,68.13
2023-04-26T03:32:37.546Z,68.05
2023-04-26T03:35:17.711Z,68.01
2023-04-26T03:37:58.687Z,68.19
2023-04-26T03:40:38.115Z,68.20
2023-04-26T03:43:17.425Z,68.19
2023-04-26T03:45:57.173Z,68.75
2023-04-26T03:48:41.870Z,69.42
2023-04-26T03:51:21.089Z,69.76
2023-04-26T03:54:00.329Z,69.66
2023-04-26T03:56:40.407Z,69.86
2023-04-26T03:59:19.719Z,69.64
2023-04-26T04:01:59.076Z,69.85
2023-04-26T04:04:43.863Z,70.08
2023-04-26T04:07:23.913Z,69.88
2023-04-26T04:10:03.297Z,69.43
2023-04-26T04:12:42.612Z,69.14
2023-04-26T04:15:22.325Z,69.37
2023-04-26T04:18:01.709Z,69.67
2023-04-26T04:20:46.046Z,69.67
2023-04-26T04:23:25.326Z,69.78
2023-04-26T04:26:04.612Z,69.58
2023-04-26T04:28:43.893Z,69.53
2023-04-26T04:31:23.263Z,69.90
2023-04-26T04:34:02.584Z,70.01
2023-04-26T04:36:46.897Z,70.24
2023-04-26T04:39:26.241Z,70.13
2023-04-26T04:42:05.503Z,69.87
2023-04-26T04:44:44.785Z,69.55
2023-04-26T04:47:24.316Z,69.62
2023-04-26T04:50:03.859Z,69.53
2023-04-26T04:52:48.517Z,70.43
2023-04-26T04:55:27.835Z,70.41
2023-04-26T04:58:07.930Z,70.50
2023-04-26T05:00:48.106Z,70.60
2023-04-26T05:03:27.831Z,70.17
2023-04-26T05:06:08.092Z,70.33
2023-04-26T05:08:52.523Z,70.16
2023-04-26T05:11:32.090Z,70.08
2023-04-26T05:14:11.478Z,70.21
2023-04-26T05:16:50.837Z,70.30
2023-04-26T05:19:30.389Z,69.91
2023-04-26T05:22:09.918Z,69.91
2023-04-26T05:24:54.823Z,70.16
2023-04-26T05:27:36.361Z,70.10
2023-04-26T05:30:17.070Z,70.01
2023-04-26T05:32:58.117Z,69.77
2023-04-26T05:35:37.489Z,70.15
2023-04-26T05:38:16.798Z,70.34
2023-04-26T05:41:01.346Z,70.31
2023-04-26T05:43:40.657Z,70.73
2023-04-26T05:46:20.152Z,70.38
2023-04-26T05:48:59.515Z,69.94
2023-04-26T05:51:38.757Z,70.22
2023-04-26T05:54:18.126Z,69.81
2023-04-26T05:57:03.378Z,69.92
2023-04-26T05:59:43.796Z,69.90
2023-04-26T06:02:23.230Z,69.92
2023-04-26T06:05:03.032Z,69.57
2023-04-26T06:07:42.539Z,69.24
2023-04-26T06:10:21.983Z,69.23
2023-04-26T06:13:06.381Z,69.90
2023-04-26T06:15:46.115Z,70.21
2023-04-26T06:18:25.369Z,70.45
2023-04-26T06:21:04.851Z,70.53
2023-04-26T06:23:44.179Z,70.53
2023-04-26T06:26:23.675Z,70.54
2023-04-26T06:29:08.407Z,70.37
2023-04-26T06:31:48.016Z,70.11
2023-04-26T06:34:27.357Z,69.81
2023-04-26T06:37:06.620Z,70.03
2023-04-26T06:39:45.999Z,70.00
2023-04-26T06:42:25.367Z,70.25
2023-04-26T06:47:54.586Z,69.71
2023-04-26T06:50:33.988Z,69.57
2023-04-26T06:53:13.467Z,68.82
2023-04-26T06:55:54.400Z,69.18
2023-04-26T06:58:33.679Z,69.66
2023-04-26T07:01:18.518Z,69.82
2023-04-26T07:03:58.310Z,69.13
2023-04-26T07:06:38.986Z,68.36
2023-04-26T07:09:18.678Z,68.66
2023-04-26T07:11:57.988Z,68.38
2023-04-26T07:14:39.104Z,68.21
2023-04-26T07:17:24.034Z,68.20
2023-04-26T07:20:03.316Z,67.50
2023-04-26T07:22:42.672Z,66.10
2023-04-26T07:25:22.279Z,64.76
2023-04-26T07:28:01.640Z,64.11
2023-04-26T07:30:40.974Z,63.77
2023-04-26T07:33:25.484Z,63.72
2023-04-26T07:36:06.579Z,62.18
2023-04-26T07:38:45.898Z,59.82
2023-04-26T07:41:26.804Z,58.98
2023-04-26T07:44:06.086Z,57.51
2023-04-26T07:46:45.489Z,57.42
2023-04-26T07:49:29.981Z,55.05
2023-04-26T07:52:09.428Z,53.38
2023-04-26T07:54:49.052Z,53.36
2023-04-26T07:57:28.310Z,52.64
2023-04-26T08:00:09.074Z,51.18
2023-04-26T08:02:48.407Z,50.05
2023-04-26T08:05:33.331Z,50.21
2023-04-26T08:08:13.791Z,48.67
2023-04-26T08:10:53.229Z,48.40
2023-04-26T08:13:32.559Z,48.16
2023-04-26T08:16:12.364Z,47.01
2023-04-26T08:18:51.844Z,45.37
2023-04-26T08:21:36.283Z,45.59
2023-04-26T08:24:15.755Z,44.93
2023-04-26T08:26:55.108Z,42.12
2023-04-26T08:29:35.028Z,42.73
2023-04-26T08:32:14.422Z,43.36
2023-04-26T08:34:53.729Z,43.41
2023-04-26T08:37:39.141Z,42.23
2023-04-26T08:40:18.833Z,41.97
2023-04-26T08:42:58.895Z,40.83
2023-04-26T08:45:39.493Z,42.91
2023-04-26T08:48:20.396Z,42.70
2023-04-26T08:51:01.397Z,39.76
2023-04-26T08:53:47.119Z,37.43
2023-04-26T08:56:29.668Z,36.00
2023-04-26T08:59:09.558Z,36.50
2023-04-26T09:01:51.581Z,38.41
2023-04-26T09:04:32.004Z,37.04
2023-04-26T09:07:14.521Z,36.09
2023-04-26T09:09:59.472Z,35.75
2023-04-26T09:12:38.790Z,35.83
2023-04-26T09:15:18.995Z,35.72
2023-04-26T09:17:58.791Z,35.47
2023-04-26T09:20:38.464Z,33.69
2023-04-26T09:23:20.480Z,33.85
2023-04-26T09:26:22.756Z,34.41
2023-04-26T09:29:21.775Z,34.24
2023-04-26T09:32:01.202Z,33.21
2023-04-26T09:34:53.157Z,34.75
2023-04-26T09:37:34.389Z,34.28
2023-04-26T09:40:25.902Z,32.62
2023-04-26T09:43:12.880Z,32.38
2023-04-26T09:45:55.429Z,31.91
2023-04-26T09:48:36.610Z,32.37
2023-04-26T09:51:18.352Z,32.06
2023-04-26T09:53:58.011Z,31.84
2023-04-26T09:56:37.420Z,33.50
2023-04-26T09:59:21.844Z,33.19
2023-04-26T10:02:01.423Z,34.36
2023-04-26T10:04:40.936Z,32.97
2023-04-26T10:07:21.073Z,33.11
2023-04-26T10:10:01.417Z,32.21
2023-04-26T10:12:41.976Z,32.22
2023-04-26T10:15:26.499Z,31.86
2023-04-26T10:18:06.321Z,34.15
2023-04-26T10:20:49.995Z,32.77
2023-04-26T10:23:31.948Z,31.62
2023-04-26T10:26:11.702Z,31.42
2023-04-26T10:29:06.530Z,30.35
2023-04-26T10:32:19.808Z,31.41
2023-04-26T10:35:19.013Z,32.72
2023-04-26T10:38:17.746Z,32.32
2023-04-26T10:40:57.012Z,32.99
2023-04-26T10:43:40.365Z,32.45
2023-04-26T10:46:44.271Z,33.21
2023-04-26T10:49:29.278Z,32.44
2023-04-26T10:52:21.057Z,30.56
2023-04-26T10:55:03.646Z,30.87
2023-04-26T10:57:59.378Z,30.42
2023-04-26T11:00:40.153Z,31.30
2023-04-26T11:03:19.581Z,30.52
2023-04-26T11:06:05.015Z,29.90
2023-04-26T11:08:44.524Z,31.10
2023-04-26T11:11:25.655Z,30.58
2023-04-26T11:14:09.495Z,30.98
2023-04-26T11:16:48.812Z,30.13
2023-04-26T11:19:28.256Z,31.13
2023-04-26T11:22:15.103Z,31.77
2023-04-26T11:24:54.969Z,31.11
2023-04-26T11:27:35.630Z,30.51
2023-04-26T11:30:16.847Z,30.65
2023-04-26T11:32:56.204Z,32.66
2023-04-26T11:35:36.416Z,31.12
2023-04-26T11:38:22.693Z,30.39
2023-04-26T11:41:04.307Z,31.14
2023-04-26T11:43:44.923Z,29.50
2023-04-26T11:46:29.102Z,29.61
2023-04-26T11:49:08.753Z,30.00
2023-04-26T11:51:48.797Z,30.21
2023-04-26T11:54:45.793Z,28.99
2023-04-26T11:57:26.557Z,29.83
2023-04-26T12:00:17.393Z,30.37
2023-04-26T12:02:59.348Z,30.04
2023-04-26T12:05:38.931Z,29.80
2023-04-26T12:08:19.511Z,29.91
2023-04-26T12:11:07.708Z,30.70
2023-04-26T12:13:47.339Z,30.15
2023-04-26T12:16:27.443Z,29.42
2023-04-26T12:19:06.898Z,29.87
2023-04-26T12:21:51.681Z,30.18
2023-04-26T12:24:34.915Z,30.91
2023-04-26T12:27:28.414Z,30.58
2023-04-26T12:30:08.533Z,29.93
2023-04-26T12:32:48.222Z,29.16
2023-04-26T12:35:28.153Z,28.08
2023-04-26T12:38:07.673Z,28.67
2023-04-26T12:40:47.045Z,27.62
2023-04-26T12:43:31.580Z,27.94
2023-04-26T12:46:11.606Z,28.15
2023-04-26T12:48:51.433Z,28.35
2023-04-26T12:51:31.166Z,28.82
2023-04-26T12:54:10.562Z,28.33
2023-04-26T12:56:50.762Z,28.06
2023-04-26T12:59:35.183Z,27.63
2023-04-26T13:02:15.007Z,27.28
2023-04-26T13:04:54.522Z,26.71
2023-04-26T13:07:34.283Z,28.17
2023-04-26T13:10:15.442Z,27.15
2023-04-26T13:12:55.187Z,27.46
2023-04-26T13:15:40.148Z,26.56
2023-04-26T13:18:19.504Z,25.63
2023-04-26T13:20:58.968Z,26.12
2023-04-26T13:23:38.368Z,25.91
2023-04-26T13:26:19.317Z,26.57
2023-04-26T13:28:58.591Z,27.77
2023-04-26T13:31:43.273Z,28.31
2023-04-26T13:34:23.059Z,28.19
2023-04-26T13:37:05.182Z,27.75
2023-04-26T13:39:44.472Z,26.78
2023-04-26T13:42:24.093Z,27.30
2023-04-26T13:45:07.472Z,27.60
2023-04-26T13:47:52.101Z,27.70
2023-04-26T13:50:31.534Z,27.14
2023-04-26T13:53:10.896Z,27.50
2023-04-26T13:55:50.270Z,27.02
2023-04-26T13:58:29.615Z,26.82
2023-04-26T14:01:09.893Z,26.75
2023-04-26T14:03:55.916Z,27.05
2023-04-26T14:06:35.912Z,26.83
2023-04-26T14:09:15.544Z,27.28
2023-04-26T14:12:07.200Z,26.35
2023-04-26T14:14:47.593Z,27.22
2023-04-26T14:17:26.897Z,27.51
2023-04-26T14:20:12.268Z,27.70
2023-04-26T14:22:51.672Z,27.08
2023-04-26T14:25:31.042Z,27.14
2023-04-26T14:28:10.768Z,28.29
2023-04-26T14:30:50.134Z,27.65
2023-04-26T14:33:29.503Z,27.20
2023-04-26T14:36:14.875Z,25.91
2023-04-26T14:38:54.215Z,27.07
2023-04-26T14:41:33.628Z,28.32
2023-04-26T14:44:13.063Z,27.10
2023-04-26T14:46:52.456Z,22.74
2023-04-26T14:49:32.658Z,22.85
2023-04-26T14:52:17.558Z,22.02
2023-04-26T14:54:56.910Z,21.85
2023-04-26T14:57:36.309Z,19.79
2023-04-26T15:00:18.192Z,19.28
2023-04-26T15:02:57.639Z,20.13
2023-04-26T15:05:39.169Z,20.35
2023-04-26T15:08:23.619Z,19.56
2023-04-26T15:11:03.104Z,19.46
2023-04-26T15:13:42.615Z,19.56
2023-04-26T15:16:22.167Z,19.57
2023-04-26T15:19:01.553Z,19.98
2023-04-26T15:21:40.851Z,21.60
2023-04-26T15:24:25.589Z,22.91
2023-04-26T15:27:04.991Z,23.29
2023-04-26T15:29:44.379Z,22.55
2023-04-26T15:32:23.733Z,23.26
2023-04-26T15:35:03.484Z,23.10
2023-04-26T15:37:45.316Z,23.73
2023-04-26T15:40:30.104Z,24.80
2023-04-26T15:43:09.409Z,25.30
2023-04-26T15:45:50.346Z,24.84
2023-04-26T15:48:29.783Z,24.70
2023-04-26T15:51:12.613Z,25.79
2023-04-26T15:53:51.885Z,24.96
2023-04-26T15:56:36.290Z,25.96
2023-04-26T16:02:00.375Z,24.81
2023-04-26T16:04:40.068Z,25.18
2023-04-26T16:07:19.559Z,27.06
2023-04-26T16:09:58.964Z,27.57
2023-04-26T16:12:46.929Z,27.29
2023-04-26T16:15:26.292Z,26.17
2023-04-26T16:18:05.722Z,26.08
2023-04-26T16:20:45.168Z,27.09
2023-04-26T16:23:24.800Z,25.71
2023-04-26T16:26:04.122Z,25.04
2023-04-26T16:28:48.498Z,24.07
2023-04-26T16:31:28.536Z,25.03
2023-04-26T16:34:08.058Z,24.19
2023-04-26T16:36:47.704Z,24.46
2023-04-26T16:39:28.279Z,23.73
2023-04-26T16:42:07.699Z,24.53
2023-04-26T16:44:52.092Z,24.18
2023-04-26T16:47:31.480Z,24.73
2023-04-26T16:50:11.048Z,26.06
2023-04-26T16:52:50.721Z,25.53
2023-04-26T16:55:30.021Z,26.40
2023-04-26T16:58:11.028Z,26.17
2023-04-26T17:00:56.169Z,25.21
2023-04-26T17:03:35.590Z,27.17
2023-04-26T17:06:17.652Z,26.10
2023-04-26T17:08:56.979Z,25.71
2023-04-26T17:11:38.450Z,26.13
2023-04-26T17:14:17.783Z,26.84
2023-04-26T17:17:02.243Z,27.12
2023-04-26T17:19:41.539Z,27.22
2023-04-26T17:22:20.784Z,27.51
2023-04-26T17:25:00.117Z,27.33
2023-04-26T17:27:39.354Z,27.16
2023-04-26T17:30:19.997Z,28.76
2023-04-26T17:33:04.782Z,29.75
2023-04-26T17:35:44.203Z,31.02
2023-04-26T17:38:23.495Z,30.85
2023-04-26T17:41:02.771Z,31.20
2023-04-26T17:43:42.088Z,30.65
2023-04-26T17:46:21.540Z,30.69
2023-04-26T17:49:06.016Z,31.08
2023-04-26T17:51:45.290Z,32.05
2023-04-26T17:54:24.682Z,31.75
2023-04-26T17:57:04.181Z,30.81
2023-04-26T17:59:43.624Z,29.84
2023-04-26T18:02:23.011Z,30.29
2023-04-26T18:05:10.049Z,33.43
2023-04-26T18:07:49.280Z,34.87
2023-04-26T18:10:28.713Z,35.67
2023-04-26T18:13:07.967Z,35.74
2023-04-26T18:15:47.560Z,36.57
2023-04-26T18:18:27.996Z,37.78
2023-04-26T18:21:12.581Z,38.49
2023-04-26T18:23:51.929Z,39.14
2023-04-26T18:26:31.185Z,39.36
2023-04-26T18:29:10.466Z,39.76
2023-04-26T18:31:50.796Z,40.06
2023-04-26T18:34:30.097Z,40.36
2023-04-26T18:37:14.554Z,41.27
2023-04-26T18:39:53.813Z,41.92
2023-04-26T18:42:33.108Z,42.45
2023-04-26T18:45:13.480Z,42.57
2023-04-26T18:47:55.089Z,42.26
2023-04-26T18:50:34.652Z,42.47
2023-04-26T18:53:19.493Z,41.61
2023-04-26T18:55:59.633Z,42.05
2023-04-26T18:58:38.883Z,42.65
2023-04-26T19:04:03.099Z,44.05
2023-04-26T19:06:42.598Z,43.00
2023-04-26T19:09:27.015Z,43.28
2023-04-26T19:12:07.137Z,43.23
2023-04-26T19:14:46.410Z,43.78
2023-04-26T19:17:25.825Z,44.36
2023-04-26T19:20:10.200Z,44.68
2023-04-26T19:22:49.633Z,45.33
2023-04-26T19:25:34.034Z,45.73
2023-04-26T19:28:13.292Z,46.61
2023-04-26T19:30:52.566Z,47.74
2023-04-26T19:33:32.434Z,47.50
2023-04-26T19:36:12.118Z,47.17
2023-04-26T19:38:51.670Z,47.44
2023-04-26T19:41:36.048Z,46.19
2023-04-26T19:44:15.508Z,47.30
2023-04-26T19:46:55.048Z,47.27
2023-04-26T19:49:34.309Z,47.52
2023-04-26T19:52:14.715Z,48.16
2023-04-26T19:54:54.390Z,47.10
2023-04-26T19:57:38.735Z,46.29
2023-04-26T20:00:19.100Z,47.40
2023-04-26T20:02:58.619Z,46.95
2023-04-26T20:05:38.080Z,48.20
2023-04-26T20:08:18.032Z,48.76
2023-04-26T20:10:57.369Z,48.97
2023-04-26T20:13:41.677Z,49.61
2023-04-26T20:16:21.205Z,49.19
2023-04-26T20:19:00.546Z,49.69
2023-04-26T20:21:39.861Z,49.74
2023-04-26T20:24:19.127Z,49.73
2023-04-26T20:26:58.382Z,50.56
2023-04-26T20:29:42.846Z,49.99
2023-04-26T20:32:22.493Z,50.73
2023-04-26T20:35:01.783Z,51.11
2023-04-26T20:37:41.441Z,51.23
2023-04-26T20:40:20.784Z,51.13
2023-04-26T20:43:01.491Z,50.81
2023-04-26T20:45:47.671Z,51.95
2023-04-26T20:48:26.951Z,51.48
2023-04-26T20:51:06.207Z,51.98
2023-04-26T20:53:45.448Z,51.94
2023-04-26T20:56:24.739Z,52.56
2023-04-26T20:59:04.065Z,53.01
2023-04-26T21:01:48.406Z,52.78
2023-04-26T21:04:28.169Z,52.31
2023-04-26T21:07:07.524Z,53.27
2023-04-26T21:09:46.988Z,53.00
2023-04-26T21:12:26.197Z,51.64
2023-04-26T21:15:05.621Z,51.72
2023-04-26T21:17:49.958Z,51.96
2023-04-26T21:20:29.265Z,53.08
2023-04-26T21:23:08.787Z,53.99
2023-04-26T21:25:51.861Z,53.91
2023-04-26T21:28:31.179Z,54.55
2023-04-26T21:31:11.200Z,53.29
2023-04-26T21:33:56.924Z,53.05
2023-04-26T21:36:36.197Z,53.42
2023-04-26T21:39:15.530Z,53.62
2023-04-26T21:41:54.799Z,53.68
2023-04-26T21:44:34.073Z,54.44
2023-04-26T21:47:13.346Z,54.82
2023-04-26T21:49:57.682Z,54.61
2023-04-26T21:52:36.976Z,54.16
2023-04-26T21:55:18.869Z,55.29
2023-04-26T21:57:58.146Z,55.56
2023-04-26T22:00:37.475Z,55.44
2023-04-26T22:03:17.407Z,55.46
2023-04-26T22:06:01.880Z,55.64
2023-04-26T22:08:41.349Z,55.69
2023-04-26T22:11:20.689Z,56.39
2023-04-26T22:13:59.978Z,56.25
2023-04-26T22:16:39.391Z,55.99
2023-04-26T22:19:18.671Z,55.64
2023-04-26T22:22:03.092Z,55.97
2023-04-26T22:24:42.908Z,56.21
2023-04-26T22:27:22.218Z,56.77
2023-04-26T22:30:12.407Z,56.24
2023-04-26T22:33:02.033Z,56.26
2023-04-26T22:35:42.417Z,57.36
2023-04-26T22:38:26.737Z,57.66
2023-04-26T22:41:08.345Z,57.79
2023-04-26T22:43:47.989Z,57.08
2023-04-26T22:46:27.541Z,56.59
2023-04-26T22:49:06.958Z,57.51
2023-04-26T22:51:53.992Z,57.96
2023-04-26T22:54:51.215Z,57.66
2023-04-26T22:57:30.512Z,57.86
2023-04-26T23:00:10.923Z,58.29
2023-04-26T23:02:51.930Z,58.02
2023-04-26T23:05:31.390Z,57.90
2023-04-26T23:08:10.644Z,58.78
2023-04-26T23:10:54.966Z,58.60
2023-04-26T23:13:34.333Z,58.34
2023-04-26T23:16:14.687Z,58.72
2023-04-26T23:18:54.058Z,58.39
2023-04-26T23:21:33.340Z,58.45
2023-04-26T23:27:03.867Z,59.58
2023-04-26T23:29:43.166Z,58.38
2023-04-26T23:32:22.486Z,58.40
2023-04-26T23:35:01.877Z,58.70
2023-04-26T23:37:41.120Z,59.18
2023-04-26T23:40:21.322Z,60.55
2023-04-26T23:43:07.298Z,60.15
2023-04-26T23:45:49.595Z,59.74
2023-04-26T23:48:29.028Z,59.90
2023-04-26T23:51:08.262Z,60.11
2023-04-26T23:53:47.521Z,60.00
2023-04-26T23:56:27.099Z,60.29
2023-04-26T23:59:11.797Z,60.53
